PWSweather.com
Personal Weather Stations
Station Observations
EMMBROOK1
Emmbrook, WokinghamGB

EmmbrookWokinghamGB

Lat: 51.42698, Lon: -0.850575

Elevation: 144

Station Type: WH1081

http://www.wokinghamweather.co.uk

Latest ConditionsUpdated 2:15:01 PM GMT Friday, Nov 24, 2017
Currently Today's Max Today's Min Today's Average
Temperature 45.0°F7.2°C 45.7°F7.6°C 39.6°F4.2°C 42.6°F5.9°C
Dew Point 35.4°F1.9°C 40.3°F4.6°C 35.4°F1.9°C 37.5°F3.1°C
Winds 2.0 mph NE3.2 kmh NE 2.1 mph SW3.4 kmh SW - 0.3 mph 0.5 kmh
Wind Gusts 3.1 mph5.0 kmh 4.5 mph7.2 kmh - -
Humidity 69% 91% 69% 82%
Pressure 29.88 in1011.9 mb 29.89 in1012.2 mb 29.70 in1005.8 mb -
Hour Temp Dew Point Humidity Winds Wind Gusts Pressure Precip Precip Rate Daily Precip Total
02:15 PM 45.0°F7.2°C 35.4°F1.9°C 69% 2.0 mph NE3.2 kmh NE 3.1 mph5.0 kmh 29.88 in1011.9 mb 0.00 in0.0 mm 0.00 in0.0 mm 0.00 in0.0 mm
02:00 PM 45.0°F7.2°C 35.4°F1.9°C 69% 1.3 mph N2.1 kmh N 2.2 mph3.5 kmh 29.88 in1011.9 mb 0.00 in0.0 mm 0.00 in0.0 mm 0.00 in0.0 mm
01:45 PM 45.0°F7.2°C 35.8°F2.1°C 70% 0.7 mph NW1.1 kmh NW 1.6 mph2.6 kmh 29.88 in1011.9 mb 0.00 in0.0 mm 0.00 in0.0 mm 0.00 in0.0 mm
01:30 PM 45.1°F7.3°C 36.3°F2.4°C 71% 1.0 mph NNW1.6 kmh NNW 2.2 mph3.5 kmh 29.89 in1012.2 mb 0.00 in0.0 mm 0.00 in0.0 mm 0.00 in0.0 mm
01:15 PM 45.0°F7.2°C 36.5°F2.5°C 72% 1.3 mph NW2.1 kmh NW 2.2 mph3.5 kmh 29.88 in1011.9 mb 0.00 in0.0 mm 0.00 in0.0 mm 0.00 in0.0 mm
01:00 PM 45.1°F7.3°C 37.0°F2.8°C 73% 0.9 mph WSW1.4 kmh WSW 2.2 mph3.5 kmh 29.89 in1012.2 mb 0.00 in0.0 mm 0.00 in0.0 mm 0.00 in0.0 mm
12:45 PM 45.0°F7.2°C 37.5°F3.1°C 75% 0.5 mph WSW0.8 kmh WSW 2.2 mph3.5 kmh 29.88 in1011.9 mb 0.00 in0.0 mm 0.00 in0.0 mm 0.00 in0.0 mm
12:30 PM 45.0°F7.2°C 38.2°F3.4°C 77% 1.5 mph SW2.4 kmh SW 3.1 mph5.0 kmh 29.89 in1012.2 mb 0.00 in0.0 mm 0.00 in0.0 mm 0.00 in0.0 mm
12:15 PM 44.8°F7.1°C 38.0°F3.3°C 77% 0.7 mph SW1.1 kmh SW 3.1 mph5.0 kmh 29.88 in1011.9 mb 0.00 in0.0 mm 0.00 in0.0 mm 0.00 in0.0 mm
12:00 PM 44.6°F7.0°C 38.5°F3.6°C 79% Calm Calm -- 29.89 in1012.2 mb 0.00 in0.0 mm 0.00 in0.0 mm 0.00 in0.0 mm
11:45 AM 44.4°F6.9°C 39.6°F4.2°C 83% Calm Calm -- 29.89 in1012.2 mb 0.00 in0.0 mm 0.00 in0.0 mm 0.00 in0.0 mm
11:30 AM 44.1°F6.7°C 39.8°F4.3°C 85% Calm Calm -- 29.88 in1011.9 mb 0.00 in0.0 mm 0.00 in0.0 mm 0.00 in0.0 mm
11:15 AM 43.7°F6.5°C 40.1°F4.5°C 87% 0.1 mph SW0.2 kmh SW 0.7 mph1.1 kmh 29.89 in1012.2 mb 0.00 in0.0 mm 0.00 in0.0 mm 0.00 in0.0 mm
11:00 AM 43.3°F6.3°C 40.3°F4.6°C 89% Calm Calm -- 29.88 in1011.9 mb 0.00 in0.0 mm 0.00 in0.0 mm 0.00 in0.0 mm
10:45 AM 43.2°F6.2°C 40.1°F4.5°C 89% 0.1 mph NW0.2 kmh NW 0.7 mph1.1 kmh 29.88 in1011.9 mb 0.00 in0.0 mm 0.00 in0.0 mm 0.00 in0.0 mm
10:30 AM 42.8°F6.0°C 40.1°F4.5°C 90% Calm Calm -- 29.88 in1011.9 mb 0.00 in0.0 mm 0.00 in0.0 mm 0.00 in0.0 mm
10:15 AM 42.3°F5.7°C 39.8°F4.3°C 91% Calm Calm -- 29.88 in1011.9 mb 0.00 in0.0 mm 0.00 in0.0 mm 0.00 in0.0 mm
10:00 AM 41.5°F5.3°C 38.8°F3.8°C 90% Calm Calm -- 29.87 in1011.5 mb 0.00 in0.0 mm 0.00 in0.0 mm 0.00 in0.0 mm
09:45 AM 41.2°F5.1°C 38.5°F3.6°C 90% Calm Calm -- 29.86 in1011.2 mb 0.00 in0.0 mm 0.00 in0.0 mm 0.00 in0.0 mm
09:30 AM 41.0°F5.0°C 38.0°F3.3°C 89% Calm Calm -- 29.86 in1011.2 mb 0.00 in0.0 mm 0.00 in0.0 mm 0.00 in0.0 mm
09:15 AM 40.6°F4.8°C 37.9°F3.3°C 90% Calm Calm -- 29.85 in1010.8 mb 0.00 in0.0 mm 0.00 in0.0 mm 0.00 in0.0 mm
09:00 AM 40.3°F4.6°C 37.3°F2.9°C 89% Calm Calm -- 29.85 in1010.8 mb 0.00 in0.0 mm 0.00 in0.0 mm 0.00 in0.0 mm
08:45 AM 39.9°F4.4°C 36.7°F2.6°C 88% Calm Calm -- 29.84 in1010.5 mb 0.00 in0.0 mm 0.00 in0.0 mm 0.00 in0.0 mm
08:30 AM 39.7°F4.3°C 36.5°F2.5°C 88% Calm Calm -- 29.84 in1010.5 mb 0.00 in0.0 mm 0.00 in0.0 mm 0.00 in0.0 mm
08:15 AM 39.6°F4.2°C 36.0°F2.2°C 87% Calm Calm -- 29.83 in1010.2 mb 0.00 in0.0 mm 0.00 in0.0 mm 0.00 in0.0 mm
08:00 AM 40.1°F4.5°C 36.5°F2.5°C 87% Calm Calm -- 29.83 in1010.2 mb 0.00 in0.0 mm 0.00 in0.0 mm 0.00 in0.0 mm
07:45 AM 40.6°F4.8°C 37.4°F3.0°C 88% Calm Calm -- 29.82 in1009.8 mb 0.00 in0.0 mm 0.00 in0.0 mm 0.00 in0.0 mm
07:30 AM 41.0°F5.0°C 37.4°F3.0°C 87% Calm Calm -- 29.82 in1009.8 mb 0.00 in0.0 mm 0.00 in0.0 mm 0.00 in0.0 mm
07:15 AM 41.2°F5.1°C 37.6°F3.1°C 87% Calm Calm -- 29.82 in1009.8 mb 0.00 in0.0 mm 0.00 in0.0 mm 0.00 in0.0 mm
07:00 AM 41.4°F5.2°C 37.8°F3.2°C 87% Calm Calm -- 29.81 in1009.5 mb 0.00 in0.0 mm 0.00 in0.0 mm 0.00 in0.0 mm
06:45 AM 41.5°F5.3°C 38.0°F3.3°C 87% Calm Calm -- 29.80 in1009.1 mb 0.00 in0.0 mm 0.00 in0.0 mm 0.00 in0.0 mm
06:30 AM 41.4°F5.2°C 37.5°F3.1°C 86% Calm Calm -- 29.80 in1009.1 mb 0.00 in0.0 mm 0.00 in0.0 mm 0.00 in0.0 mm
06:15 AM 41.4°F5.2°C 37.5°F3.1°C 86% Calm Calm -- 29.79 in1008.8 mb 0.00 in0.0 mm 0.00 in0.0 mm 0.00 in0.0 mm
06:00 AM 41.2°F5.1°C 37.0°F2.8°C 85% Calm Calm -- 29.78 in1008.5 mb 0.00 in0.0 mm 0.00 in0.0 mm 0.00 in0.0 mm
05:45 AM 41.0°F5.0°C 36.5°F2.5°C 84% Calm Calm -- 29.78 in1008.5 mb 0.00 in0.0 mm 0.00 in0.0 mm 0.00 in0.0 mm
05:30 AM 41.0°F5.0°C 36.2°F2.3°C 83% Calm Calm -- 29.77 in1008.1 mb 0.00 in0.0 mm 0.00 in0.0 mm 0.00 in0.0 mm
05:15 AM 41.0°F5.0°C 36.2°F2.3°C 83% Calm Calm -- 29.77 in1008.1 mb 0.00 in0.0 mm 0.00 in0.0 mm 0.00 in0.0 mm
05:00 AM 41.5°F5.3°C 36.8°F2.7°C 83% Calm Calm -- 29.76 in1007.8 mb 0.00 in0.0 mm 0.00 in0.0 mm 0.00 in0.0 mm
04:45 AM 42.1°F5.6°C 37.3°F2.9°C 83% Calm Calm -- 29.75 in1007.5 mb 0.00 in0.0 mm 0.00 in0.0 mm 0.00 in0.0 mm
04:30 AM 42.4°F5.8°C 38.0°F3.3°C 84% Calm Calm -- 29.75 in1007.5 mb 0.00 in0.0 mm 0.00 in0.0 mm 0.00 in0.0 mm
04:15 AM 42.6°F5.9°C 38.1°F3.4°C 84% 2.1 mph SW3.4 kmh SW 4.5 mph7.2 kmh 29.75 in1007.5 mb 0.00 in0.0 mm 0.00 in0.0 mm 0.00 in0.0 mm
04:00 AM 42.4°F5.8°C 38.0°F3.3°C 84% 0.4 mph SSW0.6 kmh SSW 2.2 mph3.5 kmh 29.75 in1007.5 mb 0.00 in0.0 mm 0.00 in0.0 mm 0.00 in0.0 mm
03:45 AM 42.3°F5.7°C 37.8°F3.2°C 84% Calm Calm -- 29.74 in1007.1 mb 0.00 in0.0 mm 0.00 in0.0 mm 0.00 in0.0 mm
03:30 AM 42.1°F5.6°C 37.6°F3.1°C 84% Calm Calm -- 29.73 in1006.8 mb 0.00 in0.0 mm 0.00 in0.0 mm 0.00 in0.0 mm
03:15 AM 41.9°F5.5°C 37.1°F2.8°C 83% 0.2 mph SW0.3 kmh SW 2.2 mph3.5 kmh 29.73 in1006.8 mb 0.00 in0.0 mm 0.00 in0.0 mm 0.00 in0.0 mm
03:00 AM 41.9°F5.5°C 37.1°F2.8°C 83% Calm Calm -- 29.73 in1006.8 mb 0.00 in0.0 mm 0.00 in0.0 mm 0.00 in0.0 mm
02:45 AM 41.9°F5.5°C 37.1°F2.8°C 83% Calm Calm -- 29.73 in1006.8 mb 0.00 in0.0 mm 0.00 in0.0 mm 0.00 in0.0 mm
02:30 AM 41.9°F5.5°C 36.8°F2.7°C 82% Calm Calm -- 29.73 in1006.8 mb 0.00 in0.0 mm 0.00 in0.0 mm 0.00 in0.0 mm
02:15 AM 41.9°F5.5°C 36.8°F2.7°C 82% Calm Calm -- 29.73 in1006.8 mb 0.00 in0.0 mm 0.00 in0.0 mm 0.00 in0.0 mm
02:00 AM 42.1°F5.6°C 36.7°F2.6°C 81% Calm Calm -- 29.73 in1006.8 mb 0.00 in0.0 mm 0.00 in0.0 mm 0.00 in0.0 mm
01:45 AM 42.3°F5.7°C 36.5°F2.5°C 80% Calm Calm -- 29.71 in1006.1 mb 0.00 in0.0 mm 0.00 in0.0 mm 0.00 in0.0 mm
01:30 AM 42.4°F5.8°C 36.4°F2.4°C 79% Calm Calm -- 29.71 in1006.1 mb 0.00 in0.0 mm 0.00 in0.0 mm 0.00 in0.0 mm
01:15 AM 42.8°F6.0°C 36.1°F2.3°C 77% Calm Calm -- 29.72 in1006.4 mb 0.00 in0.0 mm 0.00 in0.0 mm 0.00 in0.0 mm
01:00 AM 44.6°F7.0°C 37.5°F3.1°C 76% Calm Calm -- 29.70 in1005.8 mb 0.00 in0.0 mm 0.00 in0.0 mm 0.00 in0.0 mm
12:45 AM 45.0°F7.2°C 37.5°F3.1°C 75% Calm Calm -- 29.71 in1006.1 mb 0.00 in0.0 mm 0.00 in0.0 mm 0.00 in0.0 mm
12:30 AM 45.3°F7.4°C 37.5°F3.1°C 74% 0.3 mph WSW0.5 kmh WSW 1.6 mph2.6 kmh 29.71 in1006.1 mb 0.00 in0.0 mm 0.00 in0.0 mm 0.00 in0.0 mm
12:15 AM 45.5°F7.5°C 37.7°F3.2°C 74% 1.0 mph SSW1.6 kmh SSW 2.2 mph3.5 kmh 29.71 in1006.1 mb 0.00 in0.0 mm 0.00 in0.0 mm 0.00 in0.0 mm
12:00 AM 45.7°F7.6°C 37.9°F3.3°C 74% 1.4 mph SW2.3 kmh SW 3.1 mph5.0 kmh 29.71 in1006.1 mb 0.00 in0.0 mm 0.00 in0.0 mm 0.00 in0.0 mm